Airfield :







YOU CAN JOIN US ON...

 
LOGIN :

Register | Disclaimer

   EN    FR    IT 

 









Legend :    VFR   Marginal VFR   IFR   Intensive IFR   Very Intensive IFR
Visi :
Ceiling :
>= 8 km
>= 3000ft
5 to 8 km
1000 to 3000 ft
1500m to 5 km
500 to 1000 ft
800 to 1500m
200 to 500 ft
< 800m
< 200 ft
Symbols :   Thunderstorms  Fog  Heavy snow  Heavy precipitations  Wind > 20 kt






- Airport Elevation : 172 ft
- IATA code : YYY


CYYY - Mont Joli

CURRENT METAR :
  • 041400Z 14005KT 15SM OVC052 03/M02 A3014 RMK SC8 SLP211

EXPIRED METARs :
  • 041300Z 11004KT 15SM OVC050 01/M00 A3015 RMK SC8 SLP214
  • 041200Z 10004KT 15SM OVC047 00/M01 A3016 RMK SC8 SLP217
  • 041100Z VRB02KT 15SM OVC045 M00/M01 A3016 RMK SC8 SLP218

TAF TAF CYYY
Valid from the 04 at 14:00 until the 05 at 02:00 UTC


041338Z 0414/0502 10005KT P6SM OVC040
TEMPO 0414/0424 OVC020
BECMG 0414/0416 01008KT
FM050000 14004KT P6SM BKN050 RMK NXT FCST BY 042000Z



MET'MAP, your aeronautical weather chart ! - Copyright ORBIFLY December 2007 - Disclaimer

ORBIFLY MET'MAP TEAM :

Programming & Development : Alexandra Zaïnal
Concept & original design : Baudouin d'Aumeries
Assistance for programming : Marc-Olivier Méhu
Technical & hardware support : Manuel Goepfert

Contact : metmap@orbifly.com




SOURCES & CREDITS :

   NOAA